Time;durP1;ratioP1;P1;durP2;ratioP2;P2;SDS_P1;SDS_P2;PMS_P1;PMS_P2;Temp;Humidity;BMP_temperature;BMP_pressure;BME280_temperature;BME280_humidity;BME280_pressure;Samples;Min_cycle;Max_cycle;Signal;HPM_P1;HPM_P2
2023/07/11 00:00:49;;;;;;;3.78;3.58;;;20.00;81.40;;;;;;5031707;28;20272;-75
2023/07/11 00:03:15;;;;;;;3.42;2.53;;;20.00;81.40;;;;;;5033758;28;20180;-75
2023/07/11 00:05:41;;;;;;;2.80;2.60;;;20.00;81.40;;;;;;5032344;28;20204;-74
2023/07/11 00:08:07;;;;;;;3.05;2.92;;;19.90;81.80;;;;;;5033581;28;20323;-75
2023/07/11 00:10:34;;;;;;;2.80;2.70;;;19.90;82.00;;;;;;5033553;28;20674;-75
2023/07/11 00:13:00;;;;;;;3.03;2.80;;;19.80;81.70;;;;;;5032178;28;20184;-74
2023/07/11 00:15:25;;;;;;;3.45;3.17;;;19.80;82.10;;;;;;5033496;28;20559;-75
2023/07/11 00:17:51;;;;;;;3.15;2.95;;;19.80;82.40;;;;;;5032104;28;20208;-75
2023/07/11 00:20:18;;;;;;;2.80;2.65;;;19.70;82.20;;;;;;5034765;28;20226;-75
2023/07/11 00:22:45;;;;;;;3.35;3.17;;;19.70;82.30;;;;;;5033110;28;20176;-75
2023/07/11 00:25:11;;;;;;;3.58;3.28;;;19.70;82.40;;;;;;5033338;28;20185;-75
2023/07/11 00:27:38;;;;;;;4.95;3.42;;;19.60;82.70;;;;;;5032634;28;20176;-74
2023/07/11 00:30:05;;;;;;;3.42;3.22;;;19.60;82.80;;;;;;5033184;28;20601;-74
2023/07/11 00:32:30;;;;;;;3.80;3.53;;;19.60;83.10;;;;;;5032969;28;20234;-74
2023/07/11 00:34:56;;;;;;;3.65;3.45;;;19.50;83.00;;;;;;5033175;28;20185;-74
2023/07/11 00:37:22;;;;;;;5.35;2.53;;;19.50;83.80;;;;;;5032974;28;20187;-74
2023/07/11 00:39:48;;;;;;;3.92;3.60;;;19.40;83.40;;;;;;5032807;28;20207;-75
2023/07/11 00:42:13;;;;;;;4.63;2.92;;;19.40;83.80;;;;;;5032965;28;20554;-74
2023/07/11 00:44:48;;;;;;;2.97;2.78;;;19.30;84.70;;;;;;5033039;28;20177;-74
2023/07/11 00:47:14;;;;;;;3.15;2.97;;;19.30;83.20;;;;;;5032848;28;20615;-74
2023/07/11 00:49:40;;;;;;;3.08;2.88;;;19.30;84.00;;;;;;5031505;28;20214;-75
2023/07/11 00:52:07;;;;;;;3.30;3.10;;;19.30;84.20;;;;;;5032686;28;20291;-74
2023/07/11 00:54:35;;;;;;;3.28;3.08;;;19.30;83.90;;;;;;5032670;28;20173;-74
2023/07/11 00:57:04;;;;;;;3.40;2.65;;;19.30;83.80;;;;;;5032494;28;20169;-74
2023/07/11 00:59:30;;;;;;;3.22;3.08;;;19.30;84.50;;;;;;5021841;28;20863;-74
2023/07/11 01:02:27;;;;;;;3.40;3.22;;;19.20;84.00;;;;;;5032486;28;20181;-75
2023/07/11 01:04:53;;;;;;;3.00;2.90;;;19.20;83.70;;;;;;5031383;28;20197;-74
2023/07/11 01:07:25;;;;;;;3.45;3.20;;;19.20;84.10;;;;;;5030841;28;20184;-75
2023/07/11 01:09:51;;;;;;;3.15;2.95;;;19.20;83.80;;;;;;5032329;28;20254;-75
2023/07/11 01:12:18;;;;;;;3.28;3.13;;;19.20;84.00;;;;;;5032411;28;20183;-74
2023/07/11 01:14:46;;;;;;;2.80;2.60;;;19.20;84.50;;;;;;5032357;28;20179;-74
2023/07/11 01:17:33;;;;;;;2.78;2.58;;;19.20;84.10;;;;;;5032338;28;20533;-74
2023/07/11 01:20:01;;;;;;;3.03;2.85;;;19.20;84.50;;;;;;5032376;28;20188;-75
2023/07/11 01:22:29;;;;;;;3.25;3.03;;;19.10;84.70;;;;;;5030946;28;20184;-75
2023/07/11 01:25:00;;;;;;;3.53;3.33;;;19.10;84.50;;;;;;5032001;28;20177;-75
2023/07/11 01:27:26;;;;;;;3.22;2.92;;;19.10;84.50;;;;;;5032288;28;20203;-75
2023/07/11 01:29:52;;;;;;;5.25;3.10;;;19.00;84.70;;;;;;5031974;28;20176;-75
2023/07/11 01:32:19;;;;;;;3.90;3.67;;;19.00;84.80;;;;;;5032112;28;20747;-75
2023/07/11 01:34:46;;;;;;;3.35;3.13;;;19.00;84.90;;;;;;5031873;28;20181;-75
2023/07/11 01:37:12;;;;;;;3.38;3.25;;;18.90;84.70;;;;;;5030177;28;20185;-75
2023/07/11 01:39:38;;;;;;;4.10;3.72;;;18.90;85.30;;;;;;5031136;28;20208;-75
2023/07/11 01:42:04;;;;;;;3.60;3.30;;;18.90;84.90;;;;;;5031787;28;20246;-75
2023/07/11 01:44:30;;;;;;;3.25;3.05;;;18.80;85.00;;;;;;5031879;28;20180;-74
2023/07/11 01:46:56;;;;;;;3.78;3.50;;;18.80;85.10;;;;;;5030396;28;20184;-74
2023/07/11 01:49:22;;;;;;;3.20;3.00;;;18.80;85.20;;;;;;5031668;28;20628;-75
2023/07/11 01:51:47;;;;;;;3.97;3.60;;;18.70;85.50;;;;;;5031537;28;20559;-74
2023/07/11 01:54:13;;;;;;;3.00;2.80;;;18.70;85.50;;;;;;5031531;28;20233;-75
2023/07/11 01:56:39;;;;;;;2.90;2.70;;;18.60;85.50;;;;;;5030429;28;20271;-75
2023/07/11 01:59:06;;;;;;;3.63;3.33;;;18.50;85.90;;;;;;5031375;28;20750;-75
2023/07/11 02:01:32;;;;;;;3.70;3.45;;;18.50;85.60;;;;;;5030350;28;20188;-75
2023/07/11 02:03:58;;;;;;;3.33;3.22;;;18.50;86.20;;;;;;5031242;28;20212;-74
2023/07/11 02:06:24;;;;;;;3.63;3.33;;;18.50;86.40;;;;;;5031546;28;20199;-75
2023/07/11 02:08:49;;;;;;;2.83;2.63;;;18.40;86.80;;;;;;5031002;28;20184;-74
2023/07/11 02:11:15;;;;;;;3.22;3.13;;;18.40;86.70;;;;;;5031377;28;20646;-75
2023/07/11 02:13:42;;;;;;;3.53;3.33;;;18.40;87.10;;;;;;5031059;28;20192;-74
2023/07/11 02:16:08;;;;;;;3.95;2.97;;;18.40;86.60;;;;;;5031235;28;20180;-75
2023/07/11 02:18:34;;;;;;;5.18;3.10;;;18.40;86.90;;;;;;5029709;28;20216;-75
2023/07/11 02:21:00;;;;;;;3.15;2.95;;;18.40;87.40;;;;;;5032484;28;20192;-75
2023/07/11 02:23:26;;;;;;;2.88;2.78;;;18.40;87.60;;;;;;5030994;28;20187;-74
2023/07/11 02:25:55;;;;;;;3.80;2.83;;;18.40;87.20;;;;;;5031022;28;20184;-75
2023/07/11 02:28:22;;;;;;;3.38;3.20;;;18.30;87.20;;;;;;5031018;28;20654;-75
2023/07/11 02:30:48;;;;;;;3.17;2.97;;;18.40;86.70;;;;;;5030897;28;20255;-74
2023/07/11 02:33:13;;;;;;;2.90;2.80;;;18.40;87.00;;;;;;5028974;28;20267;-74
2023/07/11 02:35:39;;;;;;;3.63;2.85;;;18.40;87.00;;;;;;5030999;28;20172;-75
2023/07/11 02:38:05;;;;;;;3.42;3.15;;;18.30;86.80;;;;;;5030636;28;20208;-75
2023/07/11 02:40:31;;;;;;;2.83;2.63;;;18.30;86.70;;;;;;5030757;28;20187;-75
2023/07/11 02:42:57;;;;;;;2.72;2.63;;;18.30;86.40;;;;;;5030712;28;20558;-75
2023/07/11 02:45:23;;;;;;;3.00;2.80;;;18.30;86.30;;;;;;5030874;28;20176;-74
2023/07/11 02:47:49;;;;;;;2.90;2.80;;;18.30;86.40;;;;;;5030576;28;20187;-74
2023/07/11 02:50:15;;;;;;;2.83;2.58;;;18.30;86.30;;;;;;5030448;28;20176;-74
2023/07/11 02:52:40;;;;;;;2.95;2.67;;;18.20;87.10;;;;;;5030583;28;20624;-75
2023/07/11 02:55:07;;;;;;;3.20;2.95;;;18.00;87.80;;;;;;5030584;28;20253;-75
2023/07/11 02:57:32;;;;;;;3.53;3.33;;;18.00;87.30;;;;;;5030253;28;20654;-76
2023/07/11 02:59:59;;;;;;;3.28;3.08;;;18.00;87.30;;;;;;5029302;28;20625;-75
2023/07/11 03:02:24;;;;;;;2.80;2.60;;;18.00;87.00;;;;;;5029266;28;20188;-74
2023/07/11 03:04:51;;;;;;;2.97;2.85;;;18.10;87.30;;;;;;5029217;28;20187;-74
2023/07/11 03:07:18;;;;;;;2.60;2.50;;;18.10;87.40;;;;;;5029329;28;20628;-75
2023/07/11 03:09:43;;;;;;;3.00;2.75;;;18.10;87.00;;;;;;5030365;28;20181;-74
2023/07/11 03:12:09;;;;;;;3.20;2.95;;;18.10;87.60;;;;;;5030400;28;20234;-75
2023/07/11 03:14:37;;;;;;;3.33;2.50;;;18.20;87.50;;;;;;5030417;28;20184;-75
2023/07/11 03:17:03;;;;;;;2.90;2.70;;;18.20;87.40;;;;;;5029080;28;20184;-76
2023/07/11 03:19:28;;;;;;;2.60;2.50;;;18.20;87.40;;;;;;5031676;28;20204;-75
2023/07/11 03:21:54;;;;;;;2.92;2.72;;;18.20;87.50;;;;;;5030272;28;20176;-74
2023/07/11 03:24:19;;;;;;;3.08;2.92;;;18.20;87.30;;;;;;5030400;28;20247;-75
2023/07/11 03:26:46;;;;;;;2.60;2.50;;;18.20;87.30;;;;;;5030231;28;20172;-76
2023/07/11 03:29:13;;;;;;;3.10;3.00;;;18.20;87.20;;;;;;5030563;28;20184;-76
2023/07/11 03:31:39;;;;;;;2.28;2.17;;;18.20;87.00;;;;;;5029076;28;20189;-76
2023/07/11 03:34:05;;;;;;;2.92;2.80;;;18.20;87.10;;;;;;5030118;28;20188;-76
2023/07/11 03:36:31;;;;;;;3.03;2.88;;;18.20;87.00;;;;;;5030330;28;20173;-75
2023/07/11 03:38:56;;;;;;;2.88;2.67;;;18.30;87.00;;;;;;5030102;28;20215;-75
2023/07/11 03:41:22;;;;;;;2.83;2.63;;;18.30;86.90;;;;;;5030223;28;20184;-75
2023/07/11 03:43:48;;;;;;;2.50;2.40;;;18.30;86.80;;;;;;5029984;28;20176;-75
2023/07/11 03:46:13;;;;;;;2.90;2.80;;;18.30;86.90;;;;;;5030343;28;20321;-75
2023/07/11 03:48:39;;;;;;;2.63;2.53;;;18.30;86.80;;;;;;5030139;28;20180;-75
2023/07/11 03:51:04;;;;;;;4.60;2.92;;;18.30;86.70;;;;;;5030086;28;20177;-75
2023/07/11 03:53:30;;;;;;;3.78;3.20;;;18.30;86.70;;;;;;5028766;28;20273;-74
2023/07/11 03:55:56;;;;;;;3.20;2.80;;;18.30;86.70;;;;;;5030070;28;20263;-74
2023/07/11 03:58:21;;;;;;;2.83;2.67;;;18.30;86.80;;;;;;5029663;28;20808;-75
2023/07/11 04:00:47;;;;;;;2.58;2.47;;;18.30;86.80;;;;;;5030202;28;20741;-75
2023/07/11 04:03:13;;;;;;;3.80;2.97;;;18.30;86.90;;;;;;5033701;28;20169;-75
2023/07/11 04:05:42;;;;;;;2.38;2.38;;;18.30;87.00;;;;;;5033796;28;20561;-75
2023/07/11 04:08:08;;;;;;;2.67;2.58;;;18.30;86.90;;;;;;5033635;28;20212;-75
2023/07/11 04:10:34;;;;;;;2.55;2.45;;;18.40;87.10;;;;;;5033583;28;20231;-75
2023/07/11 04:13:00;;;;;;;3.08;2.97;;;18.40;87.10;;;;;;5033408;28;20176;-75
2023/07/11 04:15:26;;;;;;;2.65;2.45;;;18.40;87.10;;;;;;5033749;28;20263;-75
2023/07/11 04:17:52;;;;;;;3.17;2.88;;;18.50;87.20;;;;;;5032098;28;20176;-75
2023/07/11 04:20:17;;;;;;;2.80;2.65;;;18.50;87.20;;;;;;5034771;28;20180;-75
2023/07/11 04:22:43;;;;;;;3.17;2.72;;;18.50;87.30;;;;;;5033304;28;20184;-75
2023/07/11 04:25:09;;;;;;;4.20;3.08;;;18.60;87.40;;;;;;5033223;28;20173;-75
2023/07/11 04:27:35;;;;;;;3.45;3.15;;;18.60;87.30;;;;;;5033173;28;20680;-75
2023/07/11 04:30:01;;;;;;;2.58;2.40;;;18.60;87.20;;;;;;5032992;28;20237;-76
2023/07/11 04:32:28;;;;;;;3.22;2.92;;;18.70;87.10;;;;;;5033301;28;20184;-75
2023/07/11 04:34:53;;;;;;;3.28;3.08;;;18.70;87.20;;;;;;5030306;28;20255;-75
2023/07/11 04:37:19;;;;;;;3.05;2.85;;;18.70;87.20;;;;;;5033207;28;20176;-74
2023/07/11 04:39:45;;;;;;;3.25;3.08;;;18.70;87.30;;;;;;5032770;28;20220;-75
2023/07/11 04:42:10;;;;;;;3.33;3.05;;;18.70;86.90;;;;;;5033162;28;20180;-75
2023/07/11 04:44:36;;;;;;;3.08;2.88;;;18.70;86.80;;;;;;5032759;28;20661;-74
2023/07/11 04:47:02;;;;;;;2.90;2.80;;;18.60;86.50;;;;;;5032963;28;20177;-75
2023/07/11 04:49:28;;;;;;;2.85;2.72;;;18.60;86.60;;;;;;5032699;28;20653;-74
2023/07/11 04:51:53;;;;;;;3.72;3.53;;;18.60;86.80;;;;;;5032818;28;20263;-76
2023/07/11 04:54:19;;;;;;;3.75;3.55;;;18.70;86.70;;;;;;5032630;28;20246;-75
2023/07/11 04:56:53;;;;;;;2.92;2.83;;;18.70;86.70;;;;;;5032574;28;20184;-75
2023/07/11 04:59:19;;;;;;;2.72;2.63;;;18.80;86.80;;;;;;5029134;28;20597;-76
2023/07/11 05:01:45;;;;;;;4.13;3.75;;;18.80;86.90;;;;;;5032549;28;20259;-75
2023/07/11 05:04:10;;;;;;;3.40;3.10;;;18.80;86.40;;;;;;5031167;28;20207;-76
2023/07/11 05:06:36;;;;;;;4.93;3.17;;;18.90;86.70;;;;;;5032433;28;20173;-76
2023/07/11 05:09:01;;;;;;;3.15;2.97;;;18.90;86.60;;;;;;5032159;28;20176;-76
2023/07/11 05:11:27;;;;;;;3.05;2.90;;;19.00;86.50;;;;;;5032364;28;20172;-75
2023/07/11 05:13:53;;;;;;;3.47;2.90;;;19.00;86.40;;;;;;5031819;28;20204;-75
2023/07/11 05:16:20;;;;;;;3.70;2.33;;;19.10;86.60;;;;;;5032283;28;20255;-75
2023/07/11 05:18:47;;;;;;;8.20;3.58;;;19.20;86.50;;;;;;5031191;28;20713;-75
2023/07/11 05:21:16;;;;;;;3.40;3.20;;;19.20;86.10;;;;;;5033544;28;20180;-74
2023/07/11 05:23:42;;;;;;;3.45;3.30;;;19.30;86.30;;;;;;5032316;28;20280;-74
2023/07/11 05:26:08;;;;;;;3.17;2.97;;;19.30;86.20;;;;;;5030703;28;20650;-75
2023/07/11 05:28:34;;;;;;;4.20;3.20;;;19.40;85.70;;;;;;5031939;28;20271;-74
2023/07/11 05:31:01;;;;;;;3.50;3.20;;;19.40;85.60;;;;;;5031641;28;20247;-74
2023/07/11 05:33:28;;;;;;;3.10;2.90;;;19.50;85.60;;;;;;5031862;28;20576;-75
2023/07/11 05:38:42;;;;;;;3.10;2.95;;;19.70;84.40;;;;;;5023025;28;20228;-74
2023/07/11 05:41:08;;;;;;;4.22;3.83;;;19.70;85.10;;;;;;5031613;28;20184;-74
2023/07/11 05:43:33;;;;;;;4.25;3.45;;;19.80;84.40;;;;;;5032105;28;20609;-75
2023/07/11 05:45:59;;;;;;;2.92;2.78;;;19.80;84.30;;;;;;5031423;28;20235;-74
2023/07/11 05:48:25;;;;;;;3.83;3.25;;;19.90;84.50;;;;;;5031754;28;20176;-75
2023/07/11 05:51:02;;;;;;;3.35;3.10;;;19.90;84.70;;;;;;5031294;28;20180;-75
2023/07/11 05:53:31;;;;;;;3.30;3.05;;;20.00;83.90;;;;;;5031586;28;20662;-74
2023/07/11 05:55:57;;;;;;;6.38;3.45;;;20.00;84.50;;;;;;5030095;28;20267;-74
2023/07/11 05:58:27;;;;;;;4.95;3.90;;;20.10;83.90;;;;;;5031399;28;20295;-75
2023/07/11 06:00:54;;;;;;;4.70;3.95;;;20.20;83.40;;;;;;5031108;28;20179;-75
2023/07/11 06:03:22;;;;;;;3.70;3.50;;;20.30;83.40;;;;;;5031741;28;20207;-75
2023/07/11 06:05:48;;;;;;;3.72;3.50;;;20.30;83.20;;;;;;5030195;28;20233;-75
2023/07/11 06:08:14;;;;;;;4.10;3.90;;;20.30;84.50;;;;;;5030006;28;20184;-75
2023/07/11 06:10:40;;;;;;;7.15;4.40;;;20.40;83.20;;;;;;5031046;28;20485;-74
2023/07/11 06:13:06;;;;;;;3.75;3.45;;;20.40;82.90;;;;;;5031182;28;20191;-74
2023/07/11 06:15:32;;;;;;;4.53;4.13;;;20.50;82.70;;;;;;5030242;28;20598;-74
2023/07/11 06:17:57;;;;;;;3.97;3.72;;;20.60;82.90;;;;;;5031287;28;20188;-75
2023/07/11 06:20:24;;;;;;;3.38;3.17;;;20.70;82.90;;;;;;5031878;28;20188;-75
2023/07/11 06:22:50;;;;;;;5.35;3.95;;;20.80;82.90;;;;;;5030784;28;20242;-74
2023/07/11 06:25:15;;;;;;;4.38;4.05;;;20.90;82.70;;;;;;5030431;28;20176;-74
2023/07/11 06:27:41;;;;;;;3.42;3.25;;;21.00;82.40;;;;;;5031035;28;20263;-75
2023/07/11 06:30:07;;;;;;;5.13;4.70;;;21.00;82.10;;;;;;5029278;28;20282;-75
2023/07/11 06:32:33;;;;;;;4.15;3.85;;;21.10;81.70;;;;;;5031000;28;20251;-75
2023/07/11 06:34:59;;;;;;;4.30;3.97;;;21.20;82.20;;;;;;5030945;28;20672;-75
2023/07/11 06:37:24;;;;;;;4.25;4.03;;;21.30;81.80;;;;;;5030889;28;20168;-75
2023/07/11 06:39:50;;;;;;;7.65;5.20;;;21.30;81.60;;;;;;5030708;28;20212;-75
2023/07/11 06:42:17;;;;;;;5.28;4.25;;;21.40;81.20;;;;;;5030847;28;20204;-75
2023/07/11 06:44:42;;;;;;;4.18;3.78;;;21.50;80.70;;;;;;5030581;28;20180;-76
2023/07/11 06:47:08;;;;;;;6.05;4.40;;;21.60;80.50;;;;;;5029157;28;20180;-75
2023/07/11 06:49:34;;;;;;;4.70;4.28;;;21.70;80.80;;;;;;5030560;28;20184;-75
2023/07/11 06:52:00;;;;;;;4.65;4.25;;;21.70;80.80;;;;;;5029135;28;20253;-75
2023/07/11 06:54:26;;;;;;;4.72;4.43;;;21.90;80.70;;;;;;5030412;28;20176;-76
2023/07/11 06:56:54;;;;;;;5.07;4.63;;;22.00;80.20;;;;;;5030209;28;20172;-75
2023/07/11 06:59:20;;;;;;;4.97;4.57;;;22.00;80.10;;;;;;5029032;28;20216;-76
2023/07/11 07:01:46;;;;;;;4.63;4.22;;;22.10;79.80;;;;;;5030192;28;20182;-75
2023/07/11 07:04:13;;;;;;;4.63;4.32;;;22.20;80.00;;;;;;5030439;28;20176;-75
2023/07/11 07:06:40;;;;;;;4.82;4.43;;;22.30;79.90;;;;;;5029109;28;20176;-75
2023/07/11 07:09:06;;;;;;;4.80;4.50;;;22.40;79.80;;;;;;5028993;28;20278;-76
2023/07/11 07:11:32;;;;;;;5.38;4.88;;;22.50;79.50;;;;;;5029014;28;20263;-75
2023/07/11 07:13:58;;;;;;;5.20;4.90;;;22.60;79.50;;;;;;5030289;28;20180;-75
2023/07/11 07:16:23;;;;;;;4.65;4.25;;;22.70;79.30;;;;;;5028936;28;20176;-75
2023/07/11 07:18:49;;;;;;;4.80;4.38;;;22.90;78.20;;;;;;5030152;28;20587;-76
2023/07/11 07:21:15;;;;;;;4.47;4.10;;;23.00;78.10;;;;;;5031571;28;20176;-76
2023/07/11 07:23:40;;;;;;;4.35;4.15;;;23.10;78.10;;;;;;5030286;28;20179;-75
2023/07/11 07:26:06;;;;;;;4.80;4.32;;;23.20;78.00;;;;;;5029086;28;20255;-75
2023/07/11 07:28:34;;;;;;;5.22;4.28;;;23.30;77.80;;;;;;5029924;28;20242;-76
2023/07/11 07:31:02;;;;;;;5.65;4.38;;;23.40;77.70;;;;;;5029844;28;20608;-76
2023/07/11 07:33:28;;;;;;;5.47;5.07;;;23.50;77.20;;;;;;5030156;28;20252;-75
2023/07/11 07:35:56;;;;;;;5.07;4.70;;;23.60;77.20;;;;;;5030588;28;20730;-76
2023/07/11 07:38:22;;;;;;;6.88;4.63;;;23.70;75.80;;;;;;5032785;28;20211;-76
2023/07/11 07:40:52;;;;;;;5.28;4.88;;;23.80;75.30;;;;;;5033873;28;20169;-75
2023/07/11 07:43:18;;;;;;;5.20;4.80;;;23.80;76.20;;;;;;5034029;28;20889;-75
2023/07/11 07:45:49;;;;;;;4.07;3.88;;;23.90;75.50;;;;;;5033757;28;20319;-75
2023/07/11 07:48:15;;;;;;;5.40;4.93;;;24.00;75.40;;;;;;5034063;28;20207;-75
2023/07/11 07:50:41;;;;;;;6.07;4.25;;;24.10;75.70;;;;;;5033808;28;20327;-75
2023/07/11 07:53:06;;;;;;;5.38;4.65;;;24.20;75.80;;;;;;5033871;28;20180;-75
2023/07/11 07:55:36;;;;;;;4.20;3.90;;;24.30;75.50;;;;;;5033643;28;20666;-76
2023/07/11 07:58:03;;;;;;;4.90;4.50;;;24.40;74.90;;;;;;5033447;28;20207;-75
2023/07/11 08:00:28;;;;;;;4.68;4.28;;;24.50;75.20;;;;;;5033603;28;20316;-75
2023/07/11 08:02:54;;;;;;;4.65;4.05;;;24.60;75.60;;;;;;5033528;28;20906;-75
2023/07/11 08:05:23;;;;;;;5.05;4.30;;;24.70;75.30;;;;;;5033457;28;20184;-75
2023/07/11 08:07:48;;;;;;;3.95;3.75;;;24.80;75.10;;;;;;5033376;28;20177;-75
2023/07/11 08:10:15;;;;;;;4.40;4.10;;;25.00;75.10;;;;;;5033349;28;20185;-75
2023/07/11 08:12:41;;;;;;;3.90;3.70;;;25.10;74.30;;;;;;5033184;28;20739;-76
2023/07/11 08:15:08;;;;;;;4.30;4.10;;;25.20;73.70;;;;;;5033188;28;20313;-75
2023/07/11 08:17:34;;;;;;;4.40;4.05;;;25.30;73.70;;;;;;5033343;28;20176;-74
2023/07/11 08:20:00;;;;;;;6.25;4.20;;;25.40;73.70;;;;;;5034514;28;20610;-75
2023/07/11 08:22:26;;;;;;;5.00;4.60;;;25.50;74.20;;;;;;5033283;28;20259;-75
2023/07/11 08:24:51;;;;;;;4.90;4.50;;;25.60;73.90;;;;;;5033212;28;20302;-75
2023/07/11 08:27:17;;;;;;;3.60;3.50;;;25.70;72.80;;;;;;5033301;28;20173;-76
2023/07/11 08:29:45;;;;;;;4.80;3.30;;;25.60;69.30;;;;;;5030743;28;20185;-76
2023/07/11 08:32:15;;;;;;;3.40;3.28;;;25.70;68.50;;;;;;5031833;28;20177;-75
2023/07/11 08:34:41;;;;;;;3.38;3.20;;;25.60;68.30;;;;;;5032934;28;20189;-74
2023/07/11 08:37:08;;;;;;;3.58;3.47;;;25.70;68.20;;;;;;5033066;28;20185;-74
2023/07/11 08:39:35;;;;;;;3.30;3.10;;;25.70;68.30;;;;;;5032869;28;20299;-74
2023/07/11 08:42:06;;;;;;;5.53;3.80;;;25.80;68.50;;;;;;5032966;28;20176;-76
2023/07/11 08:44:36;;;;;;;3.72;3.53;;;25.90;68.50;;;;;;5032906;28;20246;-75
2023/07/11 08:47:13;;;;;;;3.17;3.08;;;25.90;68.10;;;;;;5032146;28;20264;-74
2023/07/11 08:50:00;;;;;;;5.00;3.65;;;26.00;67.90;;;;;;5031767;28;20190;-74
2023/07/11 08:52:27;;;;;;;3.50;3.30;;;26.10;67.60;;;;;;5032778;28;20234;-74
2023/07/11 08:55:01;;;;;;;3.50;3.30;;;26.30;68.20;;;;;;5032689;28;20176;-74
2023/07/11 08:57:31;;;;;;;3.70;3.50;;;26.40;67.80;;;;;;5032537;28;20681;-74
2023/07/11 09:00:08;;;;;;;3.53;3.38;;;26.50;67.00;;;;;;5032410;28;20208;-75
2023/07/11 09:03:26;;;;;;;7.03;3.13;;;26.60;66.40;;;;;;5031318;28;20187;-75
2023/07/11 09:06:02;;;;;;;5.05;3.58;;;26.70;66.30;;;;;;5007819;28;20260;-76
2023/07/11 09:08:28;;;;;;;3.38;3.17;;;26.80;65.30;;;;;;5010189;28;20180;-75
2023/07/11 09:10:56;;;;;;;3.75;3.58;;;26.80;66.00;;;;;;5020482;28;20207;-74
2023/07/11 09:13:52;;;;;;;3.30;3.13;;;26.80;65.10;;;;;;5032202;28;20185;-75
2023/07/11 09:16:22;;;;;;;3.20;3.05;;;26.90;65.20;;;;;;5030948;28;20180;-76
2023/07/11 09:18:51;;;;;;;3.17;2.85;;;27.00;65.00;;;;;;5031932;28;20728;-75
2023/07/11 09:21:26;;;;;;;3.42;3.33;;;27.00;65.10;;;;;;5032129;28;20395;-76
2023/07/11 09:24:03;;;;;;;3.70;3.55;;;27.20;65.00;;;;;;5046397;28;20271;-75
2023/07/11 09:26:30;;;;;;;2.88;2.78;;;27.20;64.70;;;;;;5027567;28;20187;-75
2023/07/11 09:29:07;;;;;;;3.45;3.20;;;27.30;65.00;;;;;;5032092;28;20180;-75
2023/07/11 09:31:49;;;;;;;3.72;3.53;;;27.40;64.00;;;;;;5032046;28;20233;-75
2023/07/11 09:34:30;;;;;;;3.45;3.35;;;27.50;64.10;;;;;;5031724;28;20179;-75
2023/07/11 09:36:58;;;;;;;2.95;2.85;;;27.70;64.00;;;;;;5022046;28;20187;-75
2023/07/11 09:39:51;;;;;;;3.72;3.53;;;27.70;63.90;;;;;;5031593;28;20281;-76
2023/07/11 09:42:39;;;;;;;3.35;3.25;;;27.80;64.20;;;;;;5031709;28;20183;-75
2023/07/11 09:45:11;;;;;;;3.55;3.25;;;27.90;63.20;;;;;;5022692;28;20212;-75
2023/07/11 09:47:39;;;;;;;3.25;3.15;;;28.00;64.10;;;;;;5031727;28;20174;-75
2023/07/11 09:50:21;;;;;;;3.72;3.58;;;28.10;64.20;;;;;;5031577;28;20176;-76
2023/07/11 09:52:47;;;;;;;3.47;3.25;;;28.20;63.90;;;;;;5029875;28;20258;-75
2023/07/11 09:55:30;;;;;;;3.67;3.50;;;28.30;63.80;;;;;;5031560;28;20536;-76
2023/07/11 09:57:56;;;;;;;3.83;3.53;;;28.50;63.70;;;;;;5020645;28;20195;-76
2023/07/11 10:00:22;;;;;;;3.92;3.72;;;28.50;63.40;;;;;;5028346;28;20185;-75
2023/07/11 10:02:48;;;;;;;3.38;3.08;;;28.60;63.50;;;;;;5031366;28;20176;-75
2023/07/11 10:05:16;;;;;;;3.33;3.17;;;28.80;63.50;;;;;;5031272;28;20176;-76
2023/07/11 10:07:42;;;;;;;4.00;3.10;;;29.00;62.90;;;;;;5031338;28;20203;-76
2023/07/11 10:10:13;;;;;;;3.70;3.50;;;29.10;62.60;;;;;;5029879;28;20224;-75
2023/07/11 10:12:43;;;;;;;3.63;3.42;;;29.30;62.90;;;;;;5029894;28;20200;-76
2023/07/11 10:15:15;;;;;;;3.60;3.50;;;29.40;62.00;;;;;;5031109;28;20182;-76
2023/07/11 10:17:43;;;;;;;3.88;3.58;;;29.50;62.10;;;;;;5031260;28;20242;-75
2023/07/11 10:20:20;;;;;;;3.35;3.25;;;29.70;61.60;;;;;;5032213;28;20207;-76
2023/07/11 10:22:51;;;;;;;3.53;3.42;;;29.80;61.20;;;;;;5030844;28;20191;-76
2023/07/11 10:25:28;;;;;;;3.30;3.20;;;29.90;61.60;;;;;;5031057;28;20203;-75
2023/07/11 10:28:25;;;;;;;3.60;3.35;;;30.30;60.70;;;;;;5030830;28;20509;-75
2023/07/11 10:30:52;;;;;;;3.53;3.42;;;30.50;61.20;;;;;;5029302;28;20188;-75
2023/07/11 10:33:29;;;;;;;3.35;3.25;;;30.80;61.80;;;;;;5031032;28;20195;-74
2023/07/11 10:36:03;;;;;;;3.28;3.17;;;31.50;59.90;;;;;;5030760;28;20653;-75
2023/07/11 10:38:45;;;;;;;4.28;3.92;;;31.90;59.70;;;;;;5029031;28;20207;-74
2023/07/11 10:41:24;;;;;;;3.58;3.47;;;32.10;59.30;;;;;;5026334;28;20570;-75
2023/07/11 10:43:52;;;;;;;3.30;3.15;;;32.30;58.60;;;;;;5029949;28;20179;-76
2023/07/11 10:46:36;;;;;;;3.20;3.00;;;32.70;56.90;;;;;;5030039;28;20677;-75
2023/07/11 10:49:07;;;;;;;3.70;3.55;;;32.90;57.20;;;;;;5029104;28;20184;-75
2023/07/11 10:51:52;;;;;;;3.88;3.70;;;33.10;57.90;;;;;;5027447;28;20598;-75
2023/07/11 10:54:21;;;;;;;3.47;3.17;;;33.20;56.60;;;;;;5028849;28;20183;-75
2023/07/11 10:56:54;;;;;;;3.08;2.88;;;33.40;57.70;;;;;;5028456;28;20725;-75
2023/07/11 10:59:23;;;;;;;3.58;3.30;;;33.60;56.00;;;;;;5016428;28;20246;-74
2023/07/11 11:02:05;;;;;;;3.10;3.05;;;34.00;55.80;;;;;;5028707;28;20669;-75
2023/07/11 11:05:14;;;;;;;3.22;2.90;;;34.30;55.00;;;;;;5030791;28;20218;-75
2023/07/11 11:07:45;;;;;;;2.88;2.58;;;34.60;54.10;;;;;;5030501;28;20577;-74
2023/07/11 11:10:30;;;;;;;3.20;3.10;;;35.00;52.70;;;;;;5030118;28;20183;-75
2023/07/11 11:13:10;;;;;;;3.22;3.03;;;35.20;52.70;;;;;;5030337;28;20555;-75
2023/07/11 11:15:51;;;;;;;2.83;2.78;;;35.80;51.10;;;;;;5030450;28;20555;-75
2023/07/11 11:18:42;;;;;;;2.95;2.85;;;36.30;50.20;;;;;;5030269;28;20260;-75
2023/07/11 11:21:22;;;;;;;2.92;2.83;;;36.60;49.60;;;;;;5031452;28;20171;-74
2023/07/11 11:23:57;;;;;;;3.42;3.33;;;36.90;49.50;;;;;;5019249;28;20172;-74
2023/07/11 11:26:51;;;;;;;2.63;2.60;;;37.20;48.90;;;;;;5030559;28;20183;-74
2023/07/11 11:29:56;;;;;;;2.80;2.80;;;37.80;48.60;;;;;;5030252;28;20190;-74
2023/07/11 11:32:31;;;;;;;2.80;2.70;;;37.90;47.30;;;;;;5023596;28;20183;-75
2023/07/11 11:35:20;;;;;;;2.72;2.63;;;38.20;48.30;;;;;;5028798;28;20699;-74
2023/07/11 11:38:14;;;;;;;10.82;2.78;;;38.60;47.70;;;;;;5030110;28;20172;-75
2023/07/11 11:40:42;;;;;;;2.83;2.72;;;38.80;47.30;;;;;;5030094;28;20180;-74
2023/07/11 11:43:13;;;;;;;2.88;2.70;;;39.30;48.70;;;;;;5030097;28;20176;-75
2023/07/11 11:45:41;;;;;;;3.05;2.83;;;39.50;47.20;;;;;;5030031;28;20191;-75
2023/07/11 11:48:17;;;;;;;3.10;2.90;;;39.50;46.20;;;;;;5030213;28;20561;-74
2023/07/11 11:50:45;;;;;;;2.80;2.80;;;39.40;46.50;;;;;;5030024;28;20858;-74
2023/07/11 11:53:43;;;;;;;2.22;2.22;;;39.40;46.50;;;;;;5030475;28;20180;-75
2023/07/11 11:56:15;;;;;;;2.80;2.70;;;38.90;46.70;;;;;;5019531;28;20262;-74
2023/07/11 11:59:03;;;;;;;2.88;2.65;;;38.20;48.80;;;;;;5029777;28;20235;-74
2023/07/11 12:01:31;;;;;;;2.95;2.85;;;38.10;48.10;;;;;;5030075;28;20568;-75
2023/07/11 12:03:57;;;;;;;4.47;2.38;;;38.30;48.70;;;;;;5029754;28;20269;-75
2023/07/11 12:06:34;;;;;;;3.00;2.97;;;38.60;46.50;;;;;;5030006;28;20211;-76
2023/07/11 12:09:22;;;;;;;2.90;2.80;;;39.00;46.60;;;;;;5060763;28;20183;-75
2023/07/11 12:12:13;;;;;;;2.78;2.75;;;39.30;46.30;;;;;;5029644;28;20179;-75
2023/07/11 12:14:59;;;;;;;2.65;2.55;;;39.90;45.20;;;;;;5029950;28;20179;-75
2023/07/11 12:17:33;;;;;;;5.95;2.40;;;40.10;44.10;;;;;;5020138;28;20172;-75
2023/07/11 12:20:02;;;;;;;3.20;3.10;;;40.20;45.80;;;;;;5030882;28;20563;-75
2023/07/11 12:22:36;;;;;;;2.97;2.88;;;40.50;44.60;;;;;;5031069;28;20187;-75
2023/07/11 12:25:14;;;;;;;3.00;2.75;;;40.50;44.60;;;;;;5033184;28;20175;-75
2023/07/11 12:28:01;;;;;;;3.35;3.15;;;40.10;45.20;;;;;;5033335;28;20267;-75
2023/07/11 12:30:27;;;;;;;5.15;2.72;;;39.90;46.30;;;;;;5023568;28;20641;-75
2023/07/11 12:32:54;;;;;;;2.75;2.60;;;40.00;46.80;;;;;;5033289;28;20175;-75
2023/07/11 12:35:25;;;;;;;2.60;2.50;;;40.30;45.80;;;;;;5031748;28;20246;-75
2023/07/11 12:38:00;;;;;;;2.72;2.72;;;40.70;45.70;;;;;;5032956;28;20211;-75
2023/07/11 12:40:47;;;;;;;3.20;2.90;;;41.20;44.80;;;;;;5032992;28;20657;-75
2023/07/11 12:43:23;;;;;;;3.08;2.75;;;41.70;46.60;;;;;;5033182;28;20175;-75
2023/07/11 12:45:53;;;;;;;2.90;2.80;;;42.30;44.00;;;;;;5032808;28;20187;-75
2023/07/11 12:48:23;;;;;;;3.33;3.20;;;42.60;41.80;;;;;;5033004;28;20175;-75
2023/07/11 12:50:50;;;;;;;3.90;2.33;;;42.80;43.40;;;;;;5032609;28;20637;-75
2023/07/11 12:53:16;;;;;;;2.83;2.65;;;43.00;42.10;;;;;;5032685;28;20167;-75
2023/07/11 12:55:44;;;;;;;2.85;2.65;;;43.10;42.70;;;;;;5032728;28;20180;-75
2023/07/11 12:58:30;;;;;;;3.00;2.90;;;42.70;41.90;;;;;;5032585;28;20199;-75
2023/07/11 13:00:58;;;;;;;5.82;2.95;;;42.00;41.90;;;;;;5032002;28;20283;-75
2023/07/11 13:03:28;;;;;;;3.25;2.58;;;41.40;42.60;;;;;;5032664;28;20190;-76